Time;durP1;ratioP1;P1;durP2;ratioP2;P2;SDS_P1;SDS_P2;PMS_P1;PMS_P2;Temp;Humidity;BMP_temperature;BMP_pressure;BME280_temperature;BME280_humidity;BME280_pressure;Samples;Min_cycle;Max_cycle;Signal;HPM_P1;HPM_P2
2024/03/18 00:02:15;;;;;;;;;;;;;;;;;;5139863;27;19907;-45
2024/03/18 00:04:41;;;;;;;;;;;;;;;;;;5140250;27;19966;-44
2024/03/18 00:07:07;;;;;;;;;;;;;;;;;;5140415;27;20325;-45
2024/03/18 00:09:33;;;;;;;;;;;;;;;;;;5140394;27;19956;-45
2024/03/18 00:11:59;;;;;;;;;;;;;;;;;;5140032;27;19908;-45
2024/03/18 00:14:25;;;;;;;;;;;;;;;;;;5140290;27;19909;-44
2024/03/18 00:16:51;;;;;;;;;;;;;;;;;;5139865;27;19907;-45
2024/03/18 00:19:17;;;;;;;;;;;;;;;;;;5139979;27;19963;-45
2024/03/18 00:21:43;;;;;;;;;;;;;;;;;;5140109;27;19908;-45
2024/03/18 00:24:09;;;;;;;;;;;;;;;;;;5139597;27;20003;-45
2024/03/18 00:26:35;;;;;;;;;;;;;;;;;;5139464;27;19933;-45
2024/03/18 00:29:01;;;;;;;;;;;;;;;;;;5139819;27;19907;-45
2024/03/18 00:31:28;;;;;;;;;;;;;;;;;;5139579;27;20006;-45
2024/03/18 00:33:54;;;;;;;;;;;;;;;;;;5139758;27;19994;-45
2024/03/18 00:36:20;;;;;;;;;;;;;;;;;;5139522;27;19951;-45
2024/03/18 00:38:46;;;;;;;;;;;;;;;;;;5139548;27;19929;-45
2024/03/18 00:43:58;;;;;;;;;;;;;;;;;;5139209;27;19922;-45
2024/03/18 00:46:24;;;;;;;;;;;;;;;;;;5139277;27;19907;-45
2024/03/18 00:48:50;;;;;;;;;;;;;;;;;;5139533;27;20068;-45
2024/03/18 00:51:16;;;;;;;;;;;;;;;;;;5120813;27;20370;-45
2024/03/18 00:53:41;;;;;;;;;;;;;;;;;;5139248;27;19915;-45
2024/03/18 00:56:07;;;;;;;;;;;;;;;;;;5139088;27;20327;-45
2024/03/18 00:58:33;;;;;;;;;;;;;;;;;;5139250;27;19914;-44
2024/03/18 01:00:59;;;;;;;;;;;;;;;;;;5139353;27;19946;-45
2024/03/18 01:03:25;;;;;;;;;;;;;;;;;;5138722;27;19911;-45
2024/03/18 01:05:51;;;;;;;;;;;;;;;;;;5138887;27;19925;-45
2024/03/18 01:08:17;;;;;;;;;;;;;;;;;;5138944;27;20353;-45
2024/03/18 01:10:43;;;;;;;;;;;;;;;;;;5139196;27;19914;-45
2024/03/18 01:13:11;;;;;;;;;;;;;;;;;;5139001;27;20706;-45
2024/03/18 01:15:37;;;;;;;;;;;;;;;;;;5138796;27;20387;-45
2024/03/18 01:18:04;;;;;;;;;;;;;;;;;;5139105;27;19994;-45
2024/03/18 01:20:32;;;;;;;;;;;;;;;;;;5138710;28;19907;-45
2024/03/18 01:22:58;;;;;;;;;;;;;;;;;;5138992;28;19919;-46
2024/03/18 01:25:24;;;;;;;;;;;;;;;;;;5139341;28;19907;-45
2024/03/18 01:27:50;;;;;;;;;;;;;;;;;;5139066;28;19956;-45
2024/03/18 01:30:18;;;;;;;;;;;;;;;;;;5138953;28;19998;-45
2024/03/18 01:32:44;;;;;;;;;;;;;;;;;;5138673;28;19939;-45
2024/03/18 01:35:13;;;;;;;;;;;;;;;;;;5138935;28;19915;-45
2024/03/18 01:37:38;;;;;;;;;;;;;;;;;;5138929;28;19907;-45
2024/03/18 01:40:07;;;;;;;;;;;;;;;;;;5139175;28;19907;-45
2024/03/18 01:42:32;;;;;;;;;;;;;;;;;;5138592;28;20010;-45
2024/03/18 01:44:58;;;;;;;;;;;;;;;;;;5138695;28;19954;-45
2024/03/18 01:47:24;;;;;;;;;;;;;;;;;;5138972;28;20426;-45
2024/03/18 01:49:51;;;;;;;;;;;;;;;;;;5138992;28;19908;-45
2024/03/18 01:52:17;;;;;;;;;;;;;;;;;;5138527;28;20455;-45
2024/03/18 01:54:43;;;;;;;;;;;;;;;;;;5138735;28;19908;-45
2024/03/18 01:57:09;;;;;;;;;;;;;;;;;;5138636;28;19914;-45
2024/03/18 01:59:35;;;;;;;;;;;;;;;;;;5138761;28;19915;-45
2024/03/18 02:02:01;;;;;;;;;;;;;;;;;;5138762;28;19908;-45
2024/03/18 02:04:27;;;;;;;;;;;;;;;;;;5138639;28;20008;-45
2024/03/18 02:06:54;;;;;;;;;;;;;;;;;;5139419;27;19920;-45
2024/03/18 02:09:20;;;;;;;;;;;;;;;;;;5142596;27;19939;-45
2024/03/18 02:11:46;;;;;;;;;;;;;;;;;;5123786;27;19907;-44
2024/03/18 02:14:12;;;;;;;;;;;;;;;;;;5142300;27;19907;-45
2024/03/18 02:16:37;;;;;;;;;;;;;;;;;;5142386;27;20285;-45
2024/03/18 02:19:04;;;;;;;;;;;;;;;;;;5142586;27;19908;-45
2024/03/18 02:21:29;;;;;;;;;;;;;;;;;;5142412;27;20395;-45
2024/03/18 02:23:55;;;;;;;;;;;;;;;;;;5142435;27;19911;-45
2024/03/18 02:26:22;;;;;;;;;;;;;;;;;;5142123;27;19914;-45
2024/03/18 02:28:48;;;;;;;;;;;;;;;;;;5142412;27;19907;-45
2024/03/18 02:31:14;;;;;;;;;;;;;;;;;;5142160;27;20422;-45
2024/03/18 02:33:41;;;;;;;;;;;;;;;;;;5141860;27;19903;-45
2024/03/18 02:36:07;;;;;;;;;;;;;;;;;;5142074;27;19935;-45
2024/03/18 02:38:33;;;;;;;;;;;;;;;;;;5142000;27;19904;-45
2024/03/18 02:40:59;;;;;;;;;;;;;;;;;;5141976;27;20406;-45
2024/03/18 02:43:25;;;;;;;;;;;;;;;;;;5141830;27;19918;-45
2024/03/18 02:45:51;;;;;;;;;;;;;;;;;;5141829;27;19920;-45
2024/03/18 02:48:17;;;;;;;;;;;;;;;;;;5141670;27;19911;-45
2024/03/18 02:50:43;;;;;;;;;;;;;;;;;;5141538;27;19907;-45
2024/03/18 02:53:09;;;;;;;;;;;;;;;;;;5141710;27;19914;-44
2024/03/18 02:55:35;;;;;;;;;;;;;;;;;;5141411;27;19908;-45
2024/03/18 02:58:01;;;;;;;;;;;;;;;;;;5141606;27;20285;-45
2024/03/18 03:00:27;;;;;;;;;;;;;;;;;;5141764;27;19912;-45
2024/03/18 03:02:53;;;;;;;;;;;;;;;;;;5141251;27;19970;-45
2024/03/18 03:05:19;;;;;;;;;;;;;;;;;;5141264;27;20283;-45
2024/03/18 03:07:45;;;;;;;;;;;;;;;;;;5141691;27;19953;-45
2024/03/18 03:10:11;;;;;;;;;;;;;;;;;;5141445;27;19907;-45
2024/03/18 03:12:37;;;;;;;;;;;;;;;;;;5140956;27;19914;-45
2024/03/18 03:15:02;;;;;;;;;;;;;;;;;;5141295;27;19908;-45
2024/03/18 03:17:28;;;;;;;;;;;;;;;;;;5141491;27;19908;-45
2024/03/18 03:19:54;;;;;;;;;;;;;;;;;;5140665;27;19914;-45
2024/03/18 03:22:20;;;;;;;;;;;;;;;;;;5140999;27;20366;-45
2024/03/18 03:24:50;;;;;;;;;;;;;;;;;;5141132;27;19908;-45
2024/03/18 03:27:16;;;;;;;;;;;;;;;;;;5140778;27;20361;-45
2024/03/18 03:29:42;;;;;;;;;;;;;;;;;;5140841;27;19907;-45
2024/03/18 03:32:07;;;;;;;;;;;;;;;;;;5141288;27;19919;-45
2024/03/18 03:34:33;;;;;;;;;;;;;;;;;;5141070;27;19908;-45
2024/03/18 03:36:59;;;;;;;;;;;;;;;;;;5140670;27;19908;-45
2024/03/18 03:39:25;;;;;;;;;;;;;;;;;;5140926;27;19915;-45
2024/03/18 03:41:51;;;;;;;;;;;;;;;;;;5140850;27;19908;-45
2024/03/18 03:44:17;;;;;;;;;;;;;;;;;;5140705;27;19922;-45
2024/03/18 03:46:43;;;;;;;;;;;;;;;;;;5140473;27;19908;-45
2024/03/18 03:49:09;;;;;;;;;;;;;;;;;;5140625;27;19915;-45
2024/03/18 03:51:35;;;;;;;;;;;;;;;;;;5140477;27;19914;-45
2024/03/18 03:54:02;;;;;;;;;;;;;;;;;;5140335;27;19904;-45
2024/03/18 03:56:29;;;;;;;;;;;;;;;;;;5140116;27;20362;-45
2024/03/18 03:58:55;;;;;;;;;;;;;;;;;;5140174;27;19907;-45
2024/03/18 04:01:21;;;;;;;;;;;;;;;;;;5140358;27;20007;-45
2024/03/18 04:03:48;;;;;;;;;;;;;;;;;;5140222;27;19922;-45
2024/03/18 04:06:14;;;;;;;;;;;;;;;;;;5139905;27;20396;-45
2024/03/18 04:08:40;;;;;;;;;;;;;;;;;;5140268;27;19968;-45
2024/03/18 04:11:07;;;;;;;;;;;;;;;;;;5139732;27;20362;-45
2024/03/18 04:13:33;;;;;;;;;;;;;;;;;;5140190;27;19911;-45
2024/03/18 04:15:59;;;;;;;;;;;;;;;;;;5139986;27;19908;-45
2024/03/18 04:18:25;;;;;;;;;;;;;;;;;;5139860;27;19904;-45
2024/03/18 04:20:51;;;;;;;;;;;;;;;;;;5140003;27;20002;-45
2024/03/18 04:23:17;;;;;;;;;;;;;;;;;;5139841;27;19982;-45
2024/03/18 04:25:43;;;;;;;;;;;;;;;;;;5124377;27;20007;-45
2024/03/18 04:28:09;;;;;;;;;;;;;;;;;;5119541;28;19955;-46
2024/03/18 04:30:36;;;;;;;;;;;;;;;;;;5118479;28;19908;-45
2024/03/18 04:33:02;;;;;;;;;;;;;;;;;;5119159;28;19994;-44
2024/03/18 04:35:28;;;;;;;;;;;;;;;;;;5119448;28;19951;-45
2024/03/18 04:37:55;;;;;;;;;;;;;;;;;;5118898;28;19908;-45
2024/03/18 04:40:21;;;;;;;;;;;;;;;;;;5118934;28;19990;-45
2024/03/18 04:42:47;;;;;;;;;;;;;;;;;;5119154;28;19966;-45
2024/03/18 04:45:14;;;;;;;;;;;;;;;;;;5119017;28;19907;-45
2024/03/18 04:47:40;;;;;;;;;;;;;;;;;;5118783;28;19915;-45
2024/03/18 04:50:06;;;;;;;;;;;;;;;;;;5118845;28;19939;-45
2024/03/18 04:52:32;;;;;;;;;;;;;;;;;;5118478;28;19908;-45
2024/03/18 04:54:58;;;;;;;;;;;;;;;;;;5118780;28;19923;-45
2024/03/18 04:57:24;;;;;;;;;;;;;;;;;;5100285;28;20279;-45
2024/03/18 04:59:49;;;;;;;;;;;;;;;;;;5118677;28;19908;-45
2024/03/18 05:02:15;;;;;;;;;;;;;;;;;;5118664;28;19908;-46
2024/03/18 05:04:41;;;;;;;;;;;;;;;;;;5118584;28;19953;-45
2024/03/18 05:07:07;;;;;;;;;;;;;;;;;;5118564;28;19912;-45
2024/03/18 05:09:34;;;;;;;;;;;;;;;;;;5118626;28;19939;-45
2024/03/18 05:12:00;;;;;;;;;;;;;;;;;;5118500;28;19908;-45
2024/03/18 05:14:26;;;;;;;;;;;;;;;;;;5118709;28;20047;-45
2024/03/18 05:16:52;;;;;;;;;;;;;;;;;;5118441;28;19907;-45
2024/03/18 05:19:18;;;;;;;;;;;;;;;;;;5118812;28;20440;-45
2024/03/18 05:21:44;;;;;;;;;;;;;;;;;;5118318;28;19915;-45
2024/03/18 05:24:09;;;;;;;;;;;;;;;;;;5118154;28;20010;-45
2024/03/18 05:26:35;;;;;;;;;;;;;;;;;;5118075;28;19915;-45
2024/03/18 05:29:01;;;;;;;;;;;;;;;;;;5118176;28;19908;-45
2024/03/18 05:31:27;;;;;;;;;;;;;;;;;;5118188;28;19918;-45
2024/03/18 05:33:53;;;;;;;;;;;;;;;;;;5118339;28;19911;-45
2024/03/18 05:36:20;;;;;;;;;;;;;;;;;;5118310;28;20382;-45
2024/03/18 05:38:46;;;;;;;;;;;;;;;;;;5118066;28;20051;-45
2024/03/18 05:41:12;;;;;;;;;;;;;;;;;;5118456;28;19908;-45
2024/03/18 05:43:38;;;;;;;;;;;;;;;;;;5122275;28;19912;-45
2024/03/18 05:46:04;;;;;;;;;;;;;;;;;;5122586;28;19947;-45
2024/03/18 05:48:30;;;;;;;;;;;;;;;;;;5122308;28;20362;-45
2024/03/18 05:50:56;;;;;;;;;;;;;;;;;;5122270;28;20279;-45
2024/03/18 05:53:22;;;;;;;;;;;;;;;;;;5121763;28;19907;-45
2024/03/18 05:55:48;;;;;;;;;;;;;;;;;;5120679;28;20367;-45
2024/03/18 05:58:14;;;;;;;;;;;;;;;;;;5120809;28;19904;-45
2024/03/18 06:00:40;;;;;;;;;;;;;;;;;;5120420;28;19915;-45
2024/03/18 06:03:06;;;;;;;;;;;;;;;;;;5122198;28;19912;-45
2024/03/18 06:05:32;;;;;;;;;;;;;;;;;;5122010;28;19926;-45
2024/03/18 06:07:58;;;;;;;;;;;;;;;;;;5122204;28;19907;-45
2024/03/18 06:10:24;;;;;;;;;;;;;;;;;;5122310;28;19908;-45
2024/03/18 06:12:50;;;;;;;;;;;;;;;;;;5121702;28;20328;-45
2024/03/18 06:15:16;;;;;;;;;;;;;;;;;;5121915;28;19907;-44
2024/03/18 06:17:42;;;;;;;;;;;;;;;;;;5121834;28;19914;-45
2024/03/18 06:20:11;;;;;;;;;;;;;;;;;;5121922;28;19908;-45
2024/03/18 06:22:37;;;;;;;;;;;;;;;;;;5121388;28;20286;-45
2024/03/18 06:27:48;;;;;;;;;;;;;;;;;;5121438;28;19915;-45
2024/03/18 06:30:14;;;;;;;;;;;;;;;;;;5122082;28;19908;-45
2024/03/18 06:32:40;;;;;;;;;;;;;;;;;;5121137;28;19915;-45
2024/03/18 06:35:06;;;;;;;;;;;;;;;;;;5121322;28;19908;-45
2024/03/18 06:37:35;;;;;;;;;;;;;;;;;;5121520;28;19908;-45
2024/03/18 06:40:01;;;;;;;;;;;;;;;;;;5121309;28;19907;-45
2024/03/18 06:42:27;;;;;;;;;;;;;;;;;;5120894;28;20432;-45
2024/03/18 06:44:53;;;;;;;;;;;;;;;;;;5121344;28;19912;-45
2024/03/18 06:47:20;;;;;;;;;;;;;;;;;;5121522;28;19948;-45
2024/03/18 06:49:46;;;;;;;;;;;;;;;;;;5121040;28;19958;-45
2024/03/18 06:52:12;;;;;;;;;;;;;;;;;;5121295;28;19911;-45
2024/03/18 06:54:38;;;;;;;;;;;;;;;;;;5119972;28;19907;-45
2024/03/18 06:57:04;;;;;;;;;;;;;;;;;;5121384;28;19989;-45
2024/03/18 06:59:30;;;;;;;;;;;;;;;;;;5102594;28;19912;-45
2024/03/18 07:01:56;;;;;;;;;;;;;;;;;;5120615;28;19916;-45
2024/03/18 07:04:22;;;;;;;;;;;;;;;;;;5120939;28;19961;-45
2024/03/18 07:06:48;;;;;;;;;;;;;;;;;;5120526;28;19930;-45
2024/03/18 07:09:15;;;;;;;;;;;;;;;;;;5120789;28;19904;-45
2024/03/18 07:11:41;;;;;;;;;;;;;;;;;;5120263;28;19957;-45
2024/03/18 07:14:07;;;;;;;;;;;;;;;;;;5120438;28;20328;-45
2024/03/18 07:16:33;;;;;;;;;;;;;;;;;;5120780;28;19915;-45
2024/03/18 07:18:59;;;;;;;;;;;;;;;;;;5120440;28;19908;-45
2024/03/18 07:21:25;;;;;;;;;;;;;;;;;;5120326;28;19956;-45
2024/03/18 07:23:51;;;;;;;;;;;;;;;;;;5120224;28;19916;-45
2024/03/18 07:26:17;;;;;;;;;;;;;;;;;;5120502;28;19918;-45
2024/03/18 07:28:43;;;;;;;;;;;;;;;;;;5120668;28;19904;-45
2024/03/18 07:31:12;;;;;;;;;;;;;;;;;;5119992;28;20379;-45
2024/03/18 07:33:38;;;;;;;;;;;;;;;;;;5120074;28;20270;-45
2024/03/18 07:36:04;;;;;;;;;;;;;;;;;;5120265;28;20006;-45
2024/03/18 07:38:31;;;;;;;;;;;;;;;;;;5119808;28;19973;-45
2024/03/18 07:40:57;;;;;;;;;;;;;;;;;;5119849;28;20321;-45
2024/03/18 07:43:23;;;;;;;;;;;;;;;;;;5119994;28;19911;-45
2024/03/18 07:45:49;;;;;;;;;;;;;;;;;;5119779;28;19908;-45
2024/03/18 07:48:15;;;;;;;;;;;;;;;;;;5120227;28;20396;-45
2024/03/18 07:50:41;;;;;;;;;;;;;;;;;;5120058;28;20016;-45
2024/03/18 07:53:07;;;;;;;;;;;;;;;;;;5120251;28;19904;-45
2024/03/18 07:55:33;;;;;;;;;;;;;;;;;;5119710;28;19990;-46
2024/03/18 07:57:59;;;;;;;;;;;;;;;;;;5119658;28;19911;-45
2024/03/18 08:00:25;;;;;;;;;;;;;;;;;;5119441;28;19915;-45
2024/03/18 08:02:51;;;;;;;;;;;;;;;;;;5119459;28;20375;-46
2024/03/18 08:05:17;;;;;;;;;;;;;;;;;;5119561;28;20393;-45
2024/03/18 08:07:43;;;;;;;;;;;;;;;;;;5119468;28;19904;-45
2024/03/18 08:10:09;;;;;;;;;;;;;;;;;;5119151;28;20327;-45
2024/03/18 08:12:35;;;;;;;;;;;;;;;;;;5119261;28;19904;-45
2024/03/18 08:15:01;;;;;;;;;;;;;;;;;;5119555;28;19915;-45
2024/03/18 08:17:27;;;;;;;;;;;;;;;;;;5119429;28;19982;-45
2024/03/18 08:19:53;;;;;;;;;;;;;;;;;;5119562;28;19996;-45
2024/03/18 08:22:19;;;;;;;;;;;;;;;;;;5119068;28;19904;-45
2024/03/18 08:24:49;;;;;;;;;;;;;;;;;;5119404;28;19957;-45
2024/03/18 08:27:15;;;;;;;;;;;;;;;;;;5118991;28;19908;-45
2024/03/18 08:29:41;;;;;;;;;;;;;;;;;;5119359;28;19961;-45
2024/03/18 08:32:07;;;;;;;;;;;;;;;;;;5119077;28;19908;-45
2024/03/18 08:34:32;;;;;;;;;;;;;;;;;;5119164;28;19908;-45
2024/03/18 08:36:59;;;;;;;;;;;;;;;;;;5119067;28;19956;-45
2024/03/18 08:39:28;;;;;;;;;;;;;;;;;;5118956;28;19915;-45
2024/03/18 08:41:54;;;;;;;;;;;;;;;;;;5118825;28;20263;-46
2024/03/18 08:44:20;;;;;;;;;;;;;;;;;;5118989;28;19912;-44
2024/03/18 08:46:46;;;;;;;;;;;;;;;;;;5118627;28;20402;-45
2024/03/18 08:49:13;;;;;;;;;;;;;;;;;;5118950;28;19908;-45
2024/03/18 08:51:40;;;;;;;;;;;;;;;;;;5118446;28;19960;-45
2024/03/18 08:54:06;;;;;;;;;;;;;;;;;;5118279;28;19931;-45
2024/03/18 08:56:32;;;;;;;;;;;;;;;;;;5118790;28;19908;-45
2024/03/18 08:58:58;;;;;;;;;;;;;;;;;;5118580;28;19908;-45
2024/03/18 09:01:25;;;;;;;;;;;;;;;;;;5118350;28;19915;-45
2024/03/18 09:03:50;;;;;;;;;;;;;;;;;;5118805;28;19923;-45
2024/03/18 09:06:17;;;;;;;;;;;;;;;;;;5118469;28;19920;-45
2024/03/18 09:08:45;;;;;;;;;;;;;;;;;;5118644;28;19998;-45
2024/03/18 09:11:11;;;;;;;;;;;;;;;;;;5118578;28;19950;-44
2024/03/18 09:13:39;;;;;;;;;;;;;;;;;;5118433;28;19912;-45
2024/03/18 09:16:05;;;;;;;;;;;;;;;;;;5118038;28;19908;-45
2024/03/18 09:18:31;;;;;;;;;;;;;;;;;;5118183;28;19914;-45
2024/03/18 09:20:57;;;;;;;;;;;;;;;;;;5118408;28;20002;-45
2024/03/18 09:23:23;;;;;;;;;;;;;;;;;;5118275;28;19912;-45
2024/03/18 09:25:49;;;;;;;;;;;;;;;;;;5099875;28;19952;-45
2024/03/18 09:28:15;;;;;;;;;;;;;;;;;;5118425;28;19957;-45
2024/03/18 09:30:42;;;;;;;;;;;;;;;;;;5118230;28;19943;-45
2024/03/18 09:33:08;;;;;;;;;;;;;;;;;;5118352;28;19995;-45
2024/03/18 09:35:34;;;;;;;;;;;;;;;;;;5118641;28;19943;-45
2024/03/18 09:38:00;;;;;;;;;;;;;;;;;;5118165;28;19915;-45
2024/03/18 09:40:26;;;;;;;;;;;;;;;;;;5118087;28;19912;-45
2024/03/18 09:42:52;;;;;;;;;;;;;;;;;;5117969;28;19964;-45
2024/03/18 09:45:18;;;;;;;;;;;;;;;;;;5117720;28;19908;-45
2024/03/18 09:47:45;;;;;;;;;;;;;;;;;;5118062;28;19904;-45
2024/03/18 09:50:11;;;;;;;;;;;;;;;;;;5117929;28;19907;-45
2024/03/18 09:52:37;;;;;;;;;;;;;;;;;;5118165;28;19918;-45
2024/03/18 09:55:03;;;;;;;;;;;;;;;;;;5117883;28;19953;-45
2024/03/18 09:57:30;;;;;;;;;;;;;;;;;;5118143;28;19907;-45
2024/03/18 09:59:56;;;;;;;;;;;;;;;;;;5117975;28;19904;-45
2024/03/18 10:02:22;;;;;;;;;;;;;;;;;;5118155;28;19947;-45
2024/03/18 10:04:48;;;;;;;;;;;;;;;;;;5117763;28;19938;-45
2024/03/18 10:07:14;;;;;;;;;;;;;;;;;;5117973;28;19915;-45
2024/03/18 10:09:41;;;;;;;;;;;;;;;;;;5118035;28;19908;-45
2024/03/18 10:12:06;;;;;;;;;;;;;;;;;;5117897;28;19908;-44
2024/03/18 10:14:32;;;;;;;;;;;;;;;;;;5117843;28;19915;-45
2024/03/18 10:16:58;;;;;;;;;;;;;;;;;;5118017;28;19999;-45
2024/03/18 10:19:24;;;;;;;;;;;;;;;;;;5117973;28;19937;-45
2024/03/18 10:21:50;;;;;;;;;;;;;;;;;;5117981;28;19908;-45
2024/03/18 10:24:16;;;;;;;;;;;;;;;;;;5117862;28;20371;-45
2024/03/18 10:26:42;;;;;;;;;;;;;;;;;;5117779;28;19965;-45
2024/03/18 10:29:08;;;;;;;;;;;;;;;;;;5119305;28;20399;-45
2024/03/18 10:31:38;;;;;;;;;;;;;;;;;;5121409;28;19908;-45
2024/03/18 10:34:04;;;;;;;;;;;;;;;;;;5121147;28;19904;-45
2024/03/18 10:36:30;;;;;;;;;;;;;;;;;;5121092;28;19976;-45
2024/03/18 10:38:56;;;;;;;;;;;;;;;;;;5121125;28;19912;-45
2024/03/18 10:41:22;;;;;;;;;;;;;;;;;;5121539;28;19981;-45
2024/03/18 10:43:50;;;;;;;;;;;;;;;;;;5121268;28;19951;-45
2024/03/18 10:46:17;;;;;;;;;;;;;;;;;;5120967;28;19908;-45
2024/03/18 10:48:43;;;;;;;;;;;;;;;;;;5121032;28;19910;-45
2024/03/18 10:51:09;;;;;;;;;;;;;;;;;;5121420;28;19908;-45
2024/03/18 10:53:35;;;;;;;;;;;;;;;;;;5120997;28;19908;-44
2024/03/18 10:56:01;;;;;;;;;;;;;;;;;;5121522;28;19915;-45
2024/03/18 10:58:27;;;;;;;;;;;;;;;;;;5120916;28;19908;-45
2024/03/18 11:00:53;;;;;;;;;;;;;;;;;;5121204;28;19908;-45
2024/03/18 11:03:19;;;;;;;;;;;;;;;;;;5120900;28;19919;-45
2024/03/18 11:05:45;;;;;;;;;;;;;;;;;;5120579;28;19920;-45
2024/03/18 11:08:11;;;;;;;;;;;;;;;;;;5120698;28;20002;-45
2024/03/18 11:10:38;;;;;;;;;;;;;;;;;;5121118;28;19915;-45
2024/03/18 11:13:04;;;;;;;;;;;;;;;;;;5120523;28;20284;-45
2024/03/18 11:15:30;;;;;;;;;;;;;;;;;;5120496;28;19907;-45
2024/03/18 11:17:56;;;;;;;;;;;;;;;;;;5120354;28;20407;-45
2024/03/18 11:20:22;;;;;;;;;;;;;;;;;;5120373;28;20342;-44
2024/03/18 11:22:48;;;;;;;;;;;;;;;;;;5120024;28;20376;-45
2024/03/18 11:25:14;;;;;;;;;;;;;;;;;;5119917;28;19912;-45
2024/03/18 11:27:40;;;;;;;;;;;;;;;;;;5119805;28;19908;-45
2024/03/18 11:30:09;;;;;;;;;;;;;;;;;;5120108;28;20311;-45
2024/03/18 11:32:35;;;;;;;;;;;;;;;;;;5119962;28;19908;-45
2024/03/18 11:35:04;;;;;;;;;;;;;;;;;;5120184;28;19915;-45
2024/03/18 11:37:30;;;;;;;;;;;;;;;;;;5120563;28;20335;-45
2024/03/18 11:39:57;;;;;;;;;;;;;;;;;;5119886;28;19915;-45
2024/03/18 11:42:23;;;;;;;;;;;;;;;;;;5120287;28;19912;-45
2024/03/18 11:44:49;;;;;;;;;;;;;;;;;;5119889;28;19912;-45
2024/03/18 11:47:15;;;;;;;;;;;;;;;;;;5119647;28;19908;-45
2024/03/18 11:49:41;;;;;;;;;;;;;;;;;;5120239;28;19908;-45
2024/03/18 11:52:07;;;;;;;;;;;;;;;;;;5120176;28;19908;-45
2024/03/18 11:54:33;;;;;;;;;;;;;;;;;;5119989;28;19915;-45
2024/03/18 11:57:04;;;;;;;;;;;;;;;;;;5120214;28;19908;-45
2024/03/18 11:59:30;;;;;;;;;;;;;;;;;;5119738;28;19908;-45
2024/03/18 12:01:58;;;;;;;;;;;;;;;;;;5101312;28;19915;-45
2024/03/18 12:04:24;;;;;;;;;;;;;;;;;;5119556;28;19911;-45
2024/03/18 12:06:50;;;;;;;;;;;;;;;;;;5119199;28;19964;-45
2024/03/18 12:09:16;;;;;;;;;;;;;;;;;;5119260;28;19978;-45
2024/03/18 12:11:42;;;;;;;;;;;;;;;;;;5119824;28;19908;-45
2024/03/18 12:14:08;;;;;;;;;;;;;;;;;;5119431;28;19912;-45
2024/03/18 12:16:48;;;;;;;;;;;;;;;;;;5119333;28;19908;-45
2024/03/18 12:19:14;;;;;;;;;;;;;;;;;;5119111;28;20312;-45
2024/03/18 12:21:40;;;;;;;;;;;;;;;;;;5119227;28;20048;-45
2024/03/18 12:29:36;;;;;;;;;;;;;;;;;;5119125;28;19952;-45
2024/03/18 12:32:03;;;;;;;;;;;;;;;;;;5119408;28;19992;-45
2024/03/18 12:34:29;;;;;;;;;;;;;;;;;;5118976;28;20355;-45
2024/03/18 12:36:55;;;;;;;;;;;;;;;;;;5119010;28;19908;-45
2024/03/18 12:39:21;;;;;;;;;;;;;;;;;;5119352;28;19914;-45
2024/03/18 12:41:47;;;;;;;;;;;;;;;;;;5118816;28;19994;-45
2024/03/18 12:44:13;;;;;;;;;;;;;;;;;;5119091;28;19912;-45
2024/03/18 12:46:39;;;;;;;;;;;;;;;;;;5118965;28;19914;-45
2024/03/18 12:49:05;;;;;;;;;;;;;;;;;;5119110;28;19943;-45
2024/03/18 12:51:32;;;;;;;;;;;;;;;;;;5117529;28;19908;-45
2024/03/18 12:53:58;;;;;;;;;;;;;;;;;;5118891;28;19912;-45
2024/03/18 12:56:25;;;;;;;;;;;;;;;;;;5118955;28;19907;-45
2024/03/18 12:58:51;;;;;;;;;;;;;;;;;;5118943;28;19908;-45
2024/03/18 13:01:17;;;;;;;;;;;;;;;;;;5100264;28;20325;-45
2024/03/18 13:03:43;;;;;;;;;;;;;;;;;;5118929;28;19915;-45
2024/03/18 13:06:09;;;;;;;;;;;;;;;;;;5118321;28;19966;-45
2024/03/18 13:08:35;;;;;;;;;;;;;;;;;;5118968;28;19909;-45
2024/03/18 13:11:03;;;;;;;;;;;;;;;;;;5118483;28;19907;-45
2024/03/18 13:13:29;;;;;;;;;;;;;;;;;;5118531;28;19977;-45
2024/03/18 13:15:55;;;;;;;;;;;;;;;;;;5118475;28;19908;-45
2024/03/18 13:18:25;;;;;;;;;;;;;;;;;;5118337;28;19915;-45
2024/03/18 13:20:51;;;;;;;;;;;;;;;;;;5117958;28;19907;-45
2024/03/18 13:23:17;;;;;;;;;;;;;;;;;;5118265;28;19912;-46
2024/03/18 13:25:43;;;;;;;;;;;;;;;;;;5117948;28;19976;-46
2024/03/18 13:28:09;;;;;;;;;;;;;;;;;;5118257;28;19927;-46
2024/03/18 13:30:35;;;;;;;;;;;;;;;;;;5118341;28;19912;-46
2024/03/18 13:33:02;;;;;;;;;;;;;;;;;;5117946;28;20385;-45
2024/03/18 13:35:28;;;;;;;;;;;;;;;;;;5117837;28;20288;-45
2024/03/18 13:37:55;;;;;;;;;;;;;;;;;;5118292;28;19904;-45
2024/03/18 13:40:21;;;;;;;;;;;;;;;;;;5117884;28;19908;-45
2024/03/18 13:42:47;;;;;;;;;;;;;;;;;;5117889;28;19915;-45
2024/03/18 13:45:13;;;;;;;;;;;;;;;;;;5118044;28;19908;-45
2024/03/18 13:47:39;;;;;;;;;;;;;;;;;;5117046;28;20278;-46
2024/03/18 13:50:05;;;;;;;;;;;;;;;;;;5115802;28;19917;-45
2024/03/18 13:52:31;;;;;;;;;;;;;;;;;;5117023;28;19907;-45
2024/03/18 13:54:57;;;;;;;;;;;;;;;;;;5116309;28;19908;-45
2024/03/18 13:57:23;;;;;;;;;;;;;;;;;;5116323;28;19915;-45
2024/03/18 13:59:50;;;;;;;;;;;;;;;;;;5118005;28;20363;-45
2024/03/18 14:02:16;;;;;;;;;;;;;;;;;;5118039;28;19914;-45
2024/03/18 14:04:42;;;;;;;;;;;;;;;;;;5122142;28;19912;-44
2024/03/18 14:07:08;;;;;;;;;;;;;;;;;;5122246;28;19918;-45
2024/03/18 14:09:34;;;;;;;;;;;;;;;;;;5122091;28;19908;-45
2024/03/18 14:12:01;;;;;;;;;;;;;;;;;;5121631;28;19915;-45
2024/03/18 14:14:33;;;;;;;;;;;;;;;;;;5121672;28;19958;-45
2024/03/18 14:17:01;;;;;;;;;;;;;;;;;;5121574;28;19908;-45
2024/03/18 14:19:27;;;;;;;;;;;;;;;;;;5121359;28;19908;-45
2024/03/18 14:21:53;;;;;;;;;;;;;;;;;;5121620;28;19911;-45
2024/03/18 14:24:20;;;;;;;;;;;;;;;;;;5121975;28;20363;-45
2024/03/18 14:26:46;;;;;;;;;;;;;;;;;;5121576;28;19912;-45
2024/03/18 14:29:12;;;;;;;;;;;;;;;;;;5121894;28;19930;-45
2024/03/18 14:31:38;;;;;;;;;;;;;;;;;;5121624;28;19912;-45
2024/03/18 14:34:04;;;;;;;;;;;;;;;;;;5121863;28;19908;-45
2024/03/18 14:36:30;;;;;;;;;;;;;;;;;;5121520;28;19916;-45
2024/03/18 14:38:56;;;;;;;;;;;;;;;;;;5121367;28;19912;-45
2024/03/18 14:41:22;;;;;;;;;;;;;;;;;;5121663;28;19914;-45
2024/03/18 14:43:48;;;;;;;;;;;;;;;;;;5121328;28;19965;-45
2024/03/18 14:46:14;;;;;;;;;;;;;;;;;;5121345;28;19908;-44
2024/03/18 14:48:40;;;;;;;;;;;;;;;;;;5120887;28;19956;-45
2024/03/18 14:51:06;;;;;;;;;;;;;;;;;;5121217;28;19915;-45
2024/03/18 14:53:33;;;;;;;;;;;;;;;;;;5121310;28;20363;-45
2024/03/18 14:55:59;;;;;;;;;;;;;;;;;;5120827;28;19969;-44
2024/03/18 14:58:25;;;;;;;;;;;;;;;;;;5120897;28;19908;-45
2024/03/18 15:00:51;;;;;;;;;;;;;;;;;;5120599;28;19907;-45
2024/03/18 15:03:17;;;;;;;;;;;;;;;;;;5120861;28;19960;-45
2024/03/18 15:05:43;;;;;;;;;;;;;;;;;;5120613;28;19939;-45
2024/03/18 15:08:09;;;;;;;;;;;;;;;;;;5120751;28;19903;-45
2024/03/18 15:10:35;;;;;;;;;;;;;;;;;;5120904;28;19911;-45
2024/03/18 15:13:01;;;;;;;;;;;;;;;;;;5120826;28;20397;-45
2024/03/18 15:15:27;;;;;;;;;;;;;;;;;;5119583;28;19919;-45
2024/03/18 15:17:54;;;;;;;;;;;;;;;;;;5120769;28;19963;-45
2024/03/18 15:20:20;;;;;;;;;;;;;;;;;;5120388;28;20400;-45
2024/03/18 15:22:47;;;;;;;;;;;;;;;;;;5120176;28;19908;-45
2024/03/18 15:27:44;;;;;;;;;;;;;;;;;;5120293;28;19929;-45
2024/03/18 15:27:59;;;;;;;;;;;;;;;;;;5120137;28;19915;-45
2024/03/18 15:30:26;;;;;;;;;;;;;;;;;;5120294;28;20351;-45
2024/03/18 15:32:51;;;;;;;;;;;;;;;;;;5120399;28;19964;-45
2024/03/18 15:35:19;;;;;;;;;;;;;;;;;;5120313;28;19915;-45
2024/03/18 15:37:45;;;;;;;;;;;;;;;;;;5119961;28;19915;-45
2024/03/18 15:40:14;;;;;;;;;;;;;;;;;;5120052;28;19908;-45
2024/03/18 15:42:40;;;;;;;;;;;;;;;;;;5119709;28;20367;-45
2024/03/18 15:45:07;;;;;;;;;;;;;;;;;;5119897;28;19907;-44
2024/03/18 15:47:33;;;;;;;;;;;;;;;;;;5120370;28;19908;-45
2024/03/18 15:49:59;;;;;;;;;;;;;;;;;;5119888;28;19914;-45
2024/03/18 15:52:26;;;;;;;;;;;;;;;;;;5119923;28;19908;-44
2024/03/18 15:54:52;;;;;;;;;;;;;;;;;;5119826;28;19908;-45
2024/03/18 15:57:18;;;;;;;;;;;;;;;;;;5119728;28;20538;-45
2024/03/18 15:59:44;;;;;;;;;;;;;;;;;;5119597;28;19912;-45
2024/03/18 16:02:10;;;;;;;;;;;;;;;;;;5119596;28;19908;-45
2024/03/18 16:04:37;;;;;;;;;;;;;;;;;;5119808;28;19911;-45
2024/03/18 16:07:04;;;;;;;;;;;;;;;;;;5119411;28;19920;-45
2024/03/18 16:09:30;;;;;;;;;;;;;;;;;;5119605;28;19908;-45
2024/03/18 16:11:56;;;;;;;;;;;;;;;;;;5119857;28;19907;-45
2024/03/18 16:14:23;;;;;;;;;;;;;;;;;;5119773;28;19998;-45
2024/03/18 16:16:48;;;;;;;;;;;;;;;;;;5119272;28;20423;-45
2024/03/18 16:19:15;;;;;;;;;;;;;;;;;;5119517;28;19970;-45
2024/03/18 16:21:41;;;;;;;;;;;;;;;;;;5119248;28;19963;-45
2024/03/18 16:24:07;;;;;;;;;;;;;;;;;;5119496;28;20314;-45
2024/03/18 16:26:33;;;;;;;;;;;;;;;;;;5119330;28;19907;-45
2024/03/18 16:28:59;;;;;;;;;;;;;;;;;;5119236;28;19999;-45
2024/03/18 16:31:25;;;;;;;;;;;;;;;;;;5119192;28;19915;-45
2024/03/18 16:33:51;;;;;;;;;;;;;;;;;;5119166;28;19908;-44
2024/03/18 16:36:17;;;;;;;;;;;;;;;;;;5119182;28;19914;-45
2024/03/18 16:38:43;;;;;;;;;;;;;;;;;;5119471;28;20275;-45
2024/03/18 16:41:10;;;;;;;;;;;;;;;;;;5118901;28;19908;-45
2024/03/18 16:43:36;;;;;;;;;;;;;;;;;;5118643;28;20069;-44
2024/03/18 16:46:02;;;;;;;;;;;;;;;;;;5119100;28;19993;-45
2024/03/18 16:48:28;;;;;;;;;;;;;;;;;;5118798;28;20318;-44
2024/03/18 16:50:54;;;;;;;;;;;;;;;;;;5119002;28;19952;-44